createdAt,value
2022-11-21T00:01:17.893Z,3.00
2022-11-21T00:03:44.545Z,3.30
2022-11-21T00:06:11.139Z,3.13
2022-11-21T00:08:37.744Z,3.77
2022-11-21T00:11:04.335Z,2.53
2022-11-21T00:13:30.935Z,2.50
2022-11-21T00:16:03.759Z,2.80
2022-11-21T00:18:30.425Z,2.10
2022-11-21T00:20:57.072Z,2.63
2022-11-21T00:23:28.206Z,2.57
2022-11-21T00:25:54.803Z,4.03
2022-11-21T00:28:21.400Z,3.77
2022-11-21T00:30:48.047Z,3.77
2022-11-21T00:33:14.755Z,3.10
2022-11-21T00:35:41.444Z,3.00
2022-11-21T00:38:08.062Z,2.60
2022-11-21T00:40:34.689Z,2.60
2022-11-21T00:43:01.326Z,2.27
2022-11-21T00:45:28.921Z,2.10
2022-11-21T00:47:55.543Z,1.90
2022-11-21T00:50:22.211Z,2.87
2022-11-21T00:52:48.828Z,2.37
2022-11-21T00:55:15.601Z,2.83
2022-11-21T00:57:42.215Z,1.90
2022-11-21T01:00:09.677Z,2.73
2022-11-21T01:02:36.306Z,3.10
2022-11-21T01:05:03.175Z,2.23
2022-11-21T01:07:30.225Z,1.90
2022-11-21T01:09:56.872Z,1.90
2022-11-21T01:12:24.041Z,2.13
2022-11-21T01:14:50.728Z,2.47
2022-11-21T01:17:17.667Z,2.47
2022-11-21T01:19:44.798Z,2.10
2022-11-21T01:22:11.397Z,2.20
2022-11-21T01:24:38.044Z,2.93
2022-11-21T01:27:04.711Z,2.80
2022-11-21T01:29:31.309Z,3.30
2022-11-21T01:31:57.996Z,2.40
2022-11-21T01:34:24.746Z,1.77
2022-11-21T01:36:51.571Z,2.13
2022-11-21T01:39:18.157Z,2.40
2022-11-21T01:41:45.822Z,2.33
2022-11-21T01:44:24.921Z,2.20
2022-11-21T01:46:53.012Z,1.60
2022-11-21T01:49:21.630Z,2.00
2022-11-21T01:51:57.958Z,1.90
2022-11-21T01:54:32.150Z,2.10
2022-11-21T01:57:08.255Z,1.70
2022-11-21T01:59:44.645Z,2.20
2022-11-21T02:02:15.378Z,2.40
2022-11-21T02:04:43.530Z,2.17
2022-11-21T02:07:13.068Z,2.20
2022-11-21T02:09:42.108Z,2.00
2022-11-21T02:12:15.566Z,1.97
2022-11-21T02:15:02.154Z,2.10
2022-11-21T02:17:30.983Z,1.60
2022-11-21T02:20:09.226Z,1.80
2022-11-21T02:23:05.708Z,1.90
2022-11-21T02:25:36.355Z,2.13
2022-11-21T02:28:06.269Z,1.83
2022-11-21T02:30:36.860Z,2.10
2022-11-21T02:33:03.836Z,2.00
2022-11-21T02:35:30.587Z,2.07
2022-11-21T02:38:12.263Z,1.80
2022-11-21T02:40:48.979Z,2.17
2022-11-21T02:43:28.383Z,2.27
2022-11-21T02:45:55.192Z,1.97
2022-11-21T02:48:21.855Z,2.20
2022-11-21T02:50:48.525Z,1.90
2022-11-21T02:53:18.168Z,2.03
2022-11-21T02:55:45.268Z,2.03
2022-11-21T02:58:12.575Z,1.93
2022-11-21T03:00:41.570Z,2.40
2022-11-21T03:03:08.915Z,1.70
2022-11-21T03:05:36.048Z,1.90
2022-11-21T03:08:03.626Z,1.73
2022-11-21T03:10:30.311Z,1.93
2022-11-21T03:13:01.042Z,1.57
2022-11-21T03:15:35.076Z,1.73
2022-11-21T03:18:02.947Z,1.80
2022-11-21T03:20:34.672Z,2.17
2022-11-21T03:23:02.084Z,1.97
2022-11-21T03:25:29.160Z,1.60
2022-11-21T03:27:55.906Z,1.50
2022-11-21T03:30:24.770Z,1.70
2022-11-21T03:32:54.702Z,1.77
2022-11-21T03:35:21.315Z,1.70
2022-11-21T03:37:49.031Z,1.90
2022-11-21T03:40:15.655Z,2.10
2022-11-21T03:42:42.343Z,1.70
2022-11-21T03:45:09.311Z,1.47
2022-11-21T03:47:36.001Z,1.97
2022-11-21T03:50:02.682Z,1.80
2022-11-21T03:52:30.381Z,1.60
2022-11-21T03:54:57.049Z,1.70
2022-11-21T03:57:23.669Z,2.00
2022-11-21T03:59:50.364Z,1.90
2022-11-21T04:02:17.019Z,1.80
2022-11-21T04:04:43.641Z,2.03
2022-11-21T04:07:10.374Z,1.77
2022-11-21T04:09:37.234Z,1.60
2022-11-21T04:12:07.672Z,1.70
2022-11-21T04:14:34.979Z,1.50
2022-11-21T04:17:01.988Z,1.60
2022-11-21T04:19:28.815Z,1.53
2022-11-21T04:21:55.455Z,1.60
2022-11-21T04:24:22.243Z,2.00
2022-11-21T04:26:48.885Z,1.70
2022-11-21T04:29:15.896Z,1.53
2022-11-21T04:31:42.718Z,1.70
2022-11-21T04:34:09.397Z,1.50
2022-11-21T04:36:36.360Z,1.50
2022-11-21T04:39:04.089Z,1.60
2022-11-21T04:41:30.707Z,2.10
2022-11-21T04:43:57.300Z,1.50
2022-11-21T04:46:24.203Z,1.70
2022-11-21T04:48:51.229Z,1.33
2022-11-21T04:51:18.292Z,1.20
2022-11-21T04:53:45.127Z,1.30
2022-11-21T04:56:16.145Z,1.63
2022-11-21T04:58:44.725Z,1.37
2022-11-21T05:01:11.817Z,1.57
2022-11-21T05:03:38.942Z,1.53
2022-11-21T05:06:05.916Z,2.07
2022-11-21T05:08:32.565Z,1.30
2022-11-21T05:11:18.091Z,1.50
2022-11-21T05:13:44.851Z,1.80
2022-11-21T05:16:11.488Z,1.90
2022-11-21T05:18:38.356Z,1.40
2022-11-21T05:21:05.861Z,1.30
2022-11-21T05:23:32.547Z,1.50
2022-11-21T05:25:59.134Z,1.30
2022-11-21T05:28:25.828Z,1.40
2022-11-21T05:30:52.495Z,1.60
2022-11-21T05:33:19.275Z,1.43
2022-11-21T05:35:46.441Z,1.67
2022-11-21T05:38:13.125Z,1.30
2022-11-21T05:40:40.011Z,1.53
2022-11-21T05:43:25.705Z,1.50
2022-11-21T05:45:52.907Z,1.60
2022-11-21T05:48:19.589Z,1.53
2022-11-21T05:50:49.726Z,1.67
2022-11-21T05:53:17.519Z,2.03
2022-11-21T05:55:44.567Z,1.67
2022-11-21T05:58:11.505Z,1.70
2022-11-21T06:00:38.547Z,2.03
2022-11-21T06:03:25.069Z,1.70
2022-11-21T06:05:52.021Z,1.60
2022-11-21T06:08:19.135Z,2.00
2022-11-21T06:10:45.809Z,2.10
2022-11-21T06:13:24.530Z,2.00
2022-11-21T06:15:58.842Z,1.63
2022-11-21T06:18:26.714Z,1.83
2022-11-21T06:20:53.769Z,1.90
2022-11-21T06:23:20.895Z,1.57
2022-11-21T06:25:47.487Z,2.17
2022-11-21T06:28:14.260Z,1.83
2022-11-21T06:30:40.877Z,2.00
2022-11-21T06:33:07.991Z,1.87
2022-11-21T06:35:38.645Z,2.10
2022-11-21T06:38:05.396Z,1.83
2022-11-21T06:40:32.534Z,1.70
2022-11-21T06:42:59.116Z,2.40
2022-11-21T06:45:26.220Z,1.87
2022-11-21T06:47:52.859Z,2.47
2022-11-21T06:50:19.767Z,2.10
2022-11-21T06:52:46.577Z,2.27
2022-11-21T06:55:14.157Z,2.00
2022-11-21T06:57:40.817Z,2.00
2022-11-21T07:00:08.230Z,2.03
2022-11-21T07:02:34.852Z,2.30
2022-11-21T07:05:01.554Z,2.37
2022-11-21T07:07:30.361Z,2.30
2022-11-21T07:09:57.135Z,2.10
2022-11-21T07:12:42.451Z,1.80
2022-11-21T07:15:10.253Z,2.13
2022-11-21T07:17:37.044Z,2.00
2022-11-21T07:20:04.023Z,2.90
2022-11-21T07:22:30.654Z,1.70
2022-11-21T07:24:57.394Z,1.90
2022-11-21T07:27:24.088Z,1.80
2022-11-21T07:29:51.916Z,2.00
2022-11-21T07:32:18.787Z,2.00
2022-11-21T07:34:45.397Z,2.47
2022-11-21T07:37:12.126Z,2.20
2022-11-21T07:39:41.578Z,2.23
2022-11-21T07:42:08.174Z,2.10
2022-11-21T07:44:36.310Z,1.90
2022-11-21T07:47:03.017Z,2.10
2022-11-21T07:49:29.977Z,2.57
2022-11-21T07:51:56.924Z,1.93
2022-11-21T07:54:23.624Z,2.23
2022-11-21T07:56:51.332Z,1.93
2022-11-21T07:59:19.186Z,2.07
2022-11-21T08:01:45.959Z,2.93
2022-11-21T08:04:12.777Z,3.10
2022-11-21T08:06:39.492Z,2.90
2022-11-21T08:09:06.101Z,3.13
2022-11-21T08:11:32.755Z,2.80
2022-11-21T08:13:59.649Z,3.03
2022-11-21T08:16:28.020Z,3.27
2022-11-21T08:18:54.816Z,5.97
2022-11-21T08:21:21.418Z,3.80
2022-11-21T08:23:48.592Z,3.50
2022-11-21T08:26:15.199Z,3.53
2022-11-21T08:28:41.777Z,2.83
2022-11-21T08:31:08.934Z,2.27
2022-11-21T08:33:35.805Z,3.03
2022-11-21T08:36:06.917Z,2.20
2022-11-21T08:38:33.833Z,2.23
2022-11-21T08:41:18.848Z,2.87
2022-11-21T08:43:45.673Z,2.30
2022-11-21T08:46:12.491Z,2.30
2022-11-21T08:48:39.157Z,2.47
2022-11-21T08:51:05.790Z,1.87
2022-11-21T08:53:32.513Z,2.77
2022-11-21T08:56:04.005Z,2.20
2022-11-21T08:58:31.278Z,2.00
2022-11-21T09:01:00.385Z,1.90
2022-11-21T09:03:31.030Z,2.00
2022-11-21T09:05:59.236Z,2.30
2022-11-21T09:08:26.448Z,1.80
2022-11-21T09:10:53.308Z,1.90
2022-11-21T09:13:20.287Z,2.30
2022-11-21T09:16:09.213Z,1.40
2022-11-21T09:18:36.265Z,1.70
2022-11-21T09:21:02.938Z,2.10
2022-11-21T09:23:29.551Z,1.63
2022-11-21T09:25:56.188Z,2.33
2022-11-21T09:28:22.776Z,2.00
2022-11-21T09:30:49.389Z,2.50
2022-11-21T09:33:19.516Z,2.37
2022-11-21T09:35:46.099Z,2.47
2022-11-21T09:38:12.818Z,2.10
2022-11-21T09:40:46.087Z,2.17
2022-11-21T09:43:35.992Z,2.57
2022-11-21T09:46:09.998Z,4.43
2022-11-21T09:48:48.633Z,2.77
2022-11-21T09:51:18.467Z,2.60
2022-11-21T09:54:10.117Z,4.43
2022-11-21T09:56:40.939Z,4.10
2022-11-21T09:59:32.837Z,4.93
2022-11-21T10:01:59.732Z,2.97
2022-11-21T10:04:27.555Z,3.20
2022-11-21T10:07:11.258Z,4.90
2022-11-21T10:09:59.405Z,2.77
2022-11-21T10:12:55.312Z,2.37
2022-11-21T10:15:22.279Z,2.40
2022-11-21T10:18:19.235Z,2.30
2022-11-21T10:20:54.870Z,1.87
2022-11-21T10:23:49.632Z,2.03
2022-11-21T10:26:21.934Z,2.30
2022-11-21T10:28:58.287Z,2.67
2022-11-21T10:31:30.894Z,3.03
2022-11-21T10:34:03.220Z,2.80
2022-11-21T10:36:36.129Z,3.00
2022-11-21T10:39:12.933Z,2.50
2022-11-21T10:41:48.380Z,2.40
2022-11-21T10:44:43.488Z,3.50
2022-11-21T10:47:27.965Z,4.63
2022-11-21T10:50:18.775Z,3.43
2022-11-21T10:52:49.884Z,2.83
2022-11-21T10:55:18.408Z,3.10
2022-11-21T10:57:49.560Z,2.47
2022-11-21T11:00:27.347Z,2.37
2022-11-21T11:02:57.257Z,2.60
2022-11-21T11:05:29.018Z,2.43
2022-11-21T11:08:15.046Z,2.03
2022-11-21T11:11:02.259Z,2.70
2022-11-21T11:13:46.213Z,2.40
2022-11-21T11:16:21.230Z,1.90
2022-11-21T11:18:57.392Z,2.07
2022-11-21T11:21:46.479Z,2.23
2022-11-21T11:24:13.067Z,2.20
2022-11-21T11:26:49.473Z,2.27
2022-11-21T11:29:20.495Z,2.10
2022-11-21T11:31:53.491Z,2.43
2022-11-21T11:34:20.752Z,3.30
2022-11-21T11:37:04.145Z,2.40
2022-11-21T11:40:01.324Z,3.30
2022-11-21T11:43:07.045Z,2.43
2022-11-21T11:46:15.047Z,2.30
2022-11-21T11:49:03.603Z,2.50
2022-11-21T11:51:39.936Z,2.90
2022-11-21T11:54:17.591Z,2.93
2022-11-21T11:56:45.490Z,2.47
2022-11-21T11:59:12.114Z,2.87
2022-11-21T12:02:01.099Z,2.90
2022-11-21T12:04:33.769Z,2.30
2022-11-21T12:10:02.371Z,3.13
2022-11-21T12:12:43.677Z,5.40
2022-11-21T12:15:32.590Z,2.43
2022-11-21T12:18:17.983Z,1.97
2022-11-21T12:20:59.892Z,2.40
2022-11-21T12:23:51.418Z,2.30
2022-11-21T12:27:05.976Z,2.67
2022-11-21T12:29:56.711Z,2.83
2022-11-21T12:32:45.252Z,2.57
2022-11-21T12:35:40.628Z,2.33
2022-11-21T12:38:44.571Z,2.23
2022-11-21T12:41:41.551Z,2.60
2022-11-21T12:44:47.051Z,2.70
2022-11-21T12:47:55.453Z,1.63
2022-11-21T12:50:51.475Z,2.20
2022-11-21T12:53:51.772Z,2.60
2022-11-21T12:56:32.503Z,2.20
2022-11-21T12:59:00.903Z,2.07
2022-11-21T13:01:43.952Z,2.47
2022-11-21T13:04:18.131Z,2.07
2022-11-21T13:06:48.192Z,1.87
2022-11-21T13:09:22.153Z,2.10
2022-11-21T13:12:06.178Z,1.97
2022-11-21T13:14:54.973Z,2.43
2022-11-21T13:17:28.500Z,2.50
2022-11-21T13:20:22.821Z,2.13
2022-11-21T13:22:55.152Z,2.13
2022-11-21T13:25:43.860Z,2.50
2022-11-21T13:28:13.195Z,2.87
2022-11-21T13:30:56.800Z,2.60
2022-11-21T13:33:36.074Z,2.07
2022-11-21T13:36:13.349Z,1.93
2022-11-21T13:38:55.410Z,2.17
2022-11-21T13:41:53.179Z,1.70
2022-11-21T13:44:32.186Z,2.10
2022-11-21T13:47:20.345Z,2.80
2022-11-21T13:50:07.858Z,1.80
2022-11-21T13:52:45.237Z,2.13
2022-11-21T13:55:39.421Z,2.40
2022-11-21T13:58:24.407Z,2.20
2022-11-21T14:01:01.231Z,2.70
2022-11-21T14:03:38.110Z,2.73
2022-11-21T14:06:13.624Z,2.77
2022-11-21T14:08:40.693Z,2.23
2022-11-21T14:11:22.217Z,2.00
2022-11-21T14:13:49.749Z,2.30
2022-11-21T14:16:41.256Z,2.40
2022-11-21T14:19:14.870Z,2.27
2022-11-21T14:21:46.338Z,2.50
2022-11-21T14:24:18.704Z,2.37
2022-11-21T14:26:53.319Z,2.13
2022-11-21T14:29:26.673Z,2.00
2022-11-21T14:31:54.162Z,2.33
2022-11-21T14:34:28.635Z,2.67
2022-11-21T14:36:59.111Z,4.10
2022-11-21T14:39:38.763Z,3.70
2022-11-21T14:42:14.937Z,4.50
2022-11-21T14:44:41.565Z,6.73
2022-11-21T14:47:26.231Z,8.70
2022-11-21T14:49:56.096Z,10.33
2022-11-21T14:52:30.414Z,11.40
2022-11-21T14:57:48.107Z,9.83
2022-11-21T15:03:04.183Z,4.97
2022-11-21T15:06:04.073Z,6.20
2022-11-21T15:08:55.804Z,3.77
2022-11-21T15:11:11.976Z,2.80
2022-11-21T15:14:06.479Z,3.47
2022-11-21T15:16:26.839Z,4.67
2022-11-21T15:18:53.534Z,4.90
2022-11-21T15:21:20.347Z,3.93
2022-11-21T15:23:47.752Z,3.40
2022-11-21T15:26:35.578Z,4.47
2022-11-21T15:29:02.813Z,4.97
2022-11-21T15:31:29.647Z,3.47
2022-11-21T15:37:05.745Z,6.97
2022-11-21T15:39:33.245Z,4.73
2022-11-21T15:42:33.813Z,9.67
2022-11-21T15:45:03.549Z,6.17
2022-11-21T15:47:30.816Z,6.33
2022-11-21T15:49:57.842Z,4.63
2022-11-21T15:52:24.728Z,12.33
2022-11-21T15:54:51.316Z,13.20
2022-11-21T15:59:50.400Z,5.27
2022-11-21T16:02:17.253Z,4.77
2022-11-21T16:04:43.937Z,6.00
2022-11-21T16:07:10.756Z,3.33
2022-11-21T16:09:38.630Z,3.53
2022-11-21T16:12:05.434Z,4.20
2022-11-21T16:14:32.142Z,3.37
2022-11-21T16:16:58.819Z,4.63
2022-11-21T16:19:25.904Z,4.07
2022-11-21T16:21:53.703Z,4.43
2022-11-21T16:24:20.759Z,3.77
2022-11-21T16:26:49.463Z,3.00
2022-11-21T16:29:16.073Z,3.80
2022-11-21T16:31:42.807Z,3.70
2022-11-21T16:34:09.463Z,5.10
2022-11-21T16:36:36.260Z,4.07
2022-11-21T16:39:08.670Z,3.20
2022-11-21T16:41:36.953Z,4.37
2022-11-21T16:44:03.922Z,3.90
2022-11-21T16:46:30.939Z,3.87
2022-11-21T16:49:00.591Z,3.07
2022-11-21T16:51:28.039Z,4.40
2022-11-21T16:53:56.332Z,3.30
2022-11-21T16:56:23.630Z,4.83
2022-11-21T16:58:50.465Z,3.50
2022-11-21T17:01:20.282Z,6.23
2022-11-21T17:03:49.242Z,3.33
2022-11-21T17:06:18.631Z,4.20
2022-11-21T17:08:47.120Z,3.70
2022-11-21T17:11:22.915Z,2.90
2022-11-21T17:13:51.144Z,3.97
2022-11-21T17:16:19.653Z,2.93
2022-11-21T17:18:46.603Z,4.43
2022-11-21T17:21:15.780Z,2.93
2022-11-21T17:23:44.537Z,2.87
2022-11-21T17:26:13.771Z,2.90
2022-11-21T17:28:45.190Z,2.90
2022-11-21T17:31:15.215Z,2.77
2022-11-21T17:33:42.941Z,3.47
2022-11-21T17:36:14.739Z,2.80
2022-11-21T17:38:47.110Z,3.00
2022-11-21T17:41:16.825Z,3.00
2022-11-21T17:43:44.843Z,3.87
2022-11-21T17:46:19.937Z,3.00
2022-11-21T17:48:54.572Z,3.77
2022-11-21T17:51:25.437Z,3.10
2022-11-21T17:53:52.936Z,3.43
2022-11-21T17:56:26.032Z,3.63
2022-11-21T17:58:52.986Z,4.13
2022-11-21T18:01:20.579Z,7.40
2022-11-21T18:03:53.228Z,8.03
2022-11-21T18:06:20.338Z,8.43
2022-11-21T18:08:48.874Z,6.30
2022-11-21T18:11:19.201Z,4.57
2022-11-21T18:13:46.383Z,3.93
2022-11-21T18:16:15.447Z,3.67
2022-11-21T18:18:42.436Z,3.37
2022-11-21T18:21:12.030Z,3.07
2022-11-21T18:23:39.285Z,8.47
2022-11-21T18:26:08.591Z,8.53
2022-11-21T18:28:35.221Z,4.63
2022-11-21T18:31:10.068Z,6.93
2022-11-21T18:33:37.782Z,9.93
2022-11-21T18:36:06.249Z,7.13
2022-11-21T18:38:49.296Z,3.50
2022-11-21T18:41:28.246Z,2.83
2022-11-21T18:43:59.901Z,4.43
2022-11-21T18:46:28.821Z,3.60
2022-11-21T18:49:06.256Z,4.13
2022-11-21T18:51:36.448Z,3.40
2022-11-21T18:54:07.105Z,3.00
2022-11-21T18:56:34.780Z,6.93
2022-11-21T18:59:03.248Z,3.43
2022-11-21T19:01:31.676Z,5.33
2022-11-21T19:03:59.141Z,10.00
2022-11-21T19:06:27.148Z,9.40
2022-11-21T19:08:55.632Z,8.07
2022-11-21T19:11:24.563Z,6.30
2022-11-21T19:13:52.854Z,4.73
2022-11-21T19:16:24.259Z,2.73
2022-11-21T19:19:18.669Z,4.03
2022-11-21T19:21:38.959Z,5.23
2022-11-21T19:24:16.431Z,3.50
2022-11-21T19:26:43.166Z,3.97
2022-11-21T19:29:10.894Z,4.47
2022-11-21T19:31:44.094Z,3.70
2022-11-21T19:34:13.691Z,3.73
2022-11-21T19:36:40.745Z,4.30
2022-11-21T19:39:07.654Z,4.30
2022-11-21T19:41:34.405Z,2.60
2022-11-21T19:44:02.170Z,3.30
2022-11-21T19:46:31.582Z,4.40
2022-11-21T19:48:59.133Z,5.87
2022-11-21T19:51:32.141Z,6.07
2022-11-21T19:53:59.102Z,4.10
2022-11-21T19:56:26.241Z,4.00
2022-11-21T19:58:55.093Z,4.60
2022-11-21T20:01:27.648Z,4.57
2022-11-21T20:03:58.752Z,4.07
2022-11-21T20:06:28.105Z,3.57
2022-11-21T20:09:00.301Z,3.00
2022-11-21T20:11:28.723Z,4.37
2022-11-21T20:13:55.399Z,2.57
2022-11-21T20:16:30.414Z,3.37
2022-11-21T20:19:02.660Z,4.10
2022-11-21T20:21:30.222Z,3.00
2022-11-21T20:24:00.650Z,4.77
2022-11-21T20:26:27.787Z,4.77
2022-11-21T20:28:54.754Z,3.13
2022-11-21T20:31:24.848Z,3.47
2022-11-21T20:33:53.572Z,3.40
2022-11-21T20:36:36.321Z,3.03
2022-11-21T20:39:08.731Z,2.57
2022-11-21T20:41:36.848Z,3.30
2022-11-21T20:46:55.908Z,5.97
2022-11-21T20:49:22.638Z,3.90
2022-11-21T20:54:37.903Z,3.57
2022-11-21T20:57:04.493Z,3.40
2022-11-21T20:59:31.441Z,3.40
2022-11-21T21:01:58.320Z,4.43
2022-11-21T21:04:25.227Z,2.93
2022-11-21T21:06:51.949Z,3.13
2022-11-21T21:09:18.544Z,2.80
2022-11-21T21:11:53.373Z,2.83
2022-11-21T21:14:23.510Z,4.00
2022-11-21T21:16:50.466Z,3.93
2022-11-21T21:19:17.992Z,3.37
2022-11-21T21:21:44.753Z,2.47
2022-11-21T21:24:12.535Z,2.80
2022-11-21T21:26:43.181Z,3.57
2022-11-21T21:29:12.200Z,3.00
2022-11-21T21:31:38.976Z,3.50
2022-11-21T21:34:05.740Z,3.37
2022-11-21T21:36:32.832Z,3.23
2022-11-21T21:39:00.425Z,3.40
2022-11-21T21:41:28.742Z,4.07
2022-11-21T21:43:57.136Z,2.67
2022-11-21T21:46:26.139Z,4.27
2022-11-21T21:48:57.548Z,4.53
2022-11-21T21:51:26.932Z,4.80
2022-11-21T21:53:54.533Z,3.40
2022-11-21T21:56:22.778Z,4.13
2022-11-21T21:58:50.319Z,3.93
2022-11-21T22:01:20.071Z,4.70
2022-11-21T22:03:47.647Z,3.90
2022-11-21T22:06:18.384Z,3.77
2022-11-21T22:08:46.634Z,3.67
2022-11-21T22:11:14.235Z,3.80
2022-11-21T22:13:45.913Z,3.20
2022-11-21T22:16:13.770Z,4.27
2022-11-21T22:18:41.058Z,6.40
2022-11-21T22:21:16.821Z,4.60
2022-11-21T22:24:02.976Z,4.20
2022-11-21T22:26:32.076Z,5.00
2022-11-21T22:28:58.708Z,3.03
2022-11-21T22:31:25.383Z,4.93
2022-11-21T22:33:52.375Z,4.90
2022-11-21T22:36:19.558Z,6.87
2022-11-21T22:38:46.470Z,5.97
2022-11-21T22:41:17.299Z,5.00
2022-11-21T22:43:49.919Z,3.50
2022-11-21T22:46:16.860Z,3.80
2022-11-21T22:48:43.424Z,3.73
2022-11-21T22:51:13.810Z,4.03
2022-11-21T22:53:40.972Z,6.40
2022-11-21T22:56:10.532Z,6.37
2022-11-21T22:58:39.621Z,4.90
2022-11-21T23:01:12.400Z,6.53
2022-11-21T23:03:40.099Z,5.43
2022-11-21T23:06:11.085Z,5.87
2022-11-21T23:08:38.317Z,5.47
2022-11-21T23:11:14.720Z,4.80
2022-11-21T23:13:44.449Z,3.20
2022-11-21T23:16:11.824Z,4.23
2022-11-21T23:18:38.974Z,2.93
2022-11-21T23:21:06.389Z,3.33
2022-11-21T23:23:33.336Z,4.90
2022-11-21T23:26:00.068Z,3.67
2022-11-21T23:28:26.925Z,3.83
2022-11-21T23:30:53.548Z,3.53
2022-11-21T23:33:20.392Z,3.23
2022-11-21T23:35:47.605Z,4.90
2022-11-21T23:38:16.264Z,5.70
2022-11-21T23:40:45.979Z,5.23
2022-11-21T23:43:13.745Z,3.77
2022-11-21T23:45:40.580Z,6.07
2022-11-21T23:48:07.215Z,4.40
2022-11-21T23:50:33.790Z,3.60
2022-11-21T23:53:00.504Z,6.10
2022-11-21T23:55:27.199Z,10.50
2022-11-21T23:57:53.852Z,4.90
